createdAt,value
2023-01-13T00:01:31.390Z,101824.34
2023-01-13T00:04:01.306Z,101819.83
2023-01-13T00:06:29.822Z,101824.54
2023-01-13T00:08:58.294Z,101824.95
2023-01-13T00:11:27.915Z,101827.27
2023-01-13T00:13:56.384Z,101828.86
2023-01-13T00:16:24.716Z,101827.64
2023-01-13T00:18:52.841Z,101830.63
2023-01-13T00:21:23.510Z,101830.61
2023-01-13T00:23:54.090Z,101832.86
2023-01-13T00:26:27.802Z,101834.55
2023-01-13T00:28:58.774Z,101834.24
2023-01-13T00:31:29.464Z,101835.33
2023-01-13T00:33:58.796Z,101828.52
2023-01-13T00:36:27.869Z,101822.23
2023-01-13T00:38:56.395Z,101819.27
2023-01-13T00:41:26.449Z,101814.48
2023-01-13T00:43:54.908Z,101811.43
2023-01-13T00:46:23.440Z,101808.23
2023-01-13T00:48:52.304Z,101804.14
2023-01-13T00:51:22.055Z,101803.31
2023-01-13T00:53:51.995Z,101800.98
2023-01-13T00:56:40.831Z,101799.63
2023-01-13T00:59:14.236Z,101795.64
2023-01-13T01:01:43.385Z,101797.84
2023-01-13T01:04:12.300Z,101799.98
2023-01-13T01:06:40.451Z,101805.68
2023-01-13T01:09:12.306Z,101806.59
2023-01-13T01:11:41.695Z,101808.39
2023-01-13T01:14:12.253Z,101811.50
2023-01-13T01:16:41.517Z,101808.08
2023-01-13T01:19:10.657Z,101805.70
2023-01-13T01:21:39.039Z,101804.42
2023-01-13T01:24:07.837Z,101805.27
2023-01-13T01:26:36.128Z,101807.44
2023-01-13T01:29:04.805Z,101809.50
2023-01-13T01:31:34.027Z,101809.58
2023-01-13T01:34:02.810Z,101807.27
2023-01-13T01:36:31.288Z,101808.88
2023-01-13T01:39:00.222Z,101812.02
2023-01-13T01:41:32.787Z,101809.17
2023-01-13T01:44:38.818Z,101807.83
2023-01-13T01:47:09.759Z,101804.08
2023-01-13T01:49:39.214Z,101803.89
2023-01-13T01:52:13.481Z,101806.20
2023-01-13T01:54:54.968Z,101805.87
2023-01-13T01:57:52.610Z,101803.52
2023-01-13T02:00:21.933Z,101798.38
2023-01-13T02:02:51.975Z,101798.71
2023-01-13T02:05:21.027Z,101805.27
2023-01-13T02:07:52.805Z,101806.77
2023-01-13T02:10:24.203Z,101807.70
2023-01-13T02:12:54.388Z,101808.15
2023-01-13T02:16:03.071Z,101803.98
2023-01-13T02:19:05.139Z,101801.65
2023-01-13T02:21:57.998Z,101797.81
2023-01-13T02:24:54.506Z,101799.55
2023-01-13T02:27:46.755Z,101802.19
2023-01-13T02:30:34.471Z,101803.08
2023-01-13T02:33:28.748Z,101803.06
2023-01-13T02:36:01.532Z,101795.71
2023-01-13T02:38:45.260Z,101795.09
2023-01-13T02:41:41.071Z,101789.46
2023-01-13T02:44:12.522Z,101783.34
2023-01-13T02:46:54.054Z,101783.48
2023-01-13T02:49:46.920Z,101785.01
2023-01-13T02:52:21.113Z,101787.39
2023-01-13T02:54:55.364Z,101788.48
2023-01-13T02:57:26.699Z,101782.53
2023-01-13T02:59:56.002Z,101788.22
2023-01-13T03:02:26.252Z,101784.90
2023-01-13T03:04:59.672Z,101781.20
2023-01-13T03:08:17.992Z,101774.50
2023-01-13T03:11:16.669Z,101776.80
2023-01-13T03:14:26.397Z,101780.45
2023-01-13T03:17:03.679Z,101775.26
2023-01-13T03:19:54.993Z,101773.91
2023-01-13T03:22:41.261Z,101776.87
2023-01-13T03:25:18.782Z,101779.73
2023-01-13T03:27:55.548Z,101785.55
2023-01-13T03:30:34.318Z,101785.31
2023-01-13T03:33:20.152Z,101785.73
2023-01-13T03:35:54.683Z,101784.04
2023-01-13T03:38:30.135Z,101787.20
2023-01-13T03:41:05.670Z,101786.89
2023-01-13T03:44:03.940Z,101784.43
2023-01-13T03:46:55.446Z,101782.90
2023-01-13T03:49:29.973Z,101780.48
2023-01-13T03:52:03.682Z,101784.64
2023-01-13T03:54:34.209Z,101783.74
2023-01-13T03:57:09.276Z,101786.87
2023-01-13T03:59:43.166Z,101789.13
2023-01-13T04:02:30.069Z,101786.60
2023-01-13T04:05:03.158Z,101793.20
2023-01-13T04:07:47.309Z,101792.55
2023-01-13T04:10:19.440Z,101795.90
2023-01-13T04:13:01.995Z,101793.44
2023-01-13T04:15:34.329Z,101792.71
2023-01-13T04:18:14.713Z,101788.29
2023-01-13T04:20:46.083Z,101791.41
2023-01-13T04:23:14.449Z,101792.80
2023-01-13T04:25:44.323Z,101791.09
2023-01-13T04:28:13.524Z,101791.31
2023-01-13T04:30:43.184Z,101786.64
2023-01-13T04:33:13.635Z,101784.50
2023-01-13T04:35:42.378Z,101785.42
2023-01-13T04:38:13.371Z,101784.50
2023-01-13T04:40:42.523Z,101788.14
2023-01-13T04:43:11.562Z,101789.63
2023-01-13T04:45:40.042Z,101800.31
2023-01-13T04:48:08.334Z,101805.90
2023-01-13T04:50:36.891Z,101808.61
2023-01-13T04:53:06.035Z,101808.16
2023-01-13T04:55:35.453Z,101811.61
2023-01-13T04:58:09.137Z,101813.79
2023-01-13T05:00:37.615Z,101813.16
2023-01-13T05:03:06.103Z,101811.03
2023-01-13T05:05:34.702Z,101814.97
2023-01-13T05:08:03.375Z,101812.23
2023-01-13T05:10:31.897Z,101812.29
2023-01-13T05:13:18.874Z,101816.34
2023-01-13T05:16:06.878Z,101817.61
2023-01-13T05:18:35.604Z,101822.04
2023-01-13T05:21:03.783Z,101817.83
2023-01-13T05:23:50.683Z,101816.44
2023-01-13T05:26:18.765Z,101820.69
2023-01-13T05:28:47.149Z,101826.14
2023-01-13T05:31:15.681Z,101827.92
2023-01-13T05:33:44.123Z,101825.31
2023-01-13T05:36:12.199Z,101829.68
2023-01-13T05:38:40.483Z,101827.95
2023-01-13T05:41:28.722Z,101830.05
2023-01-13T05:43:57.108Z,101834.41
2023-01-13T05:46:25.971Z,101840.75
2023-01-13T05:48:54.856Z,101834.44
2023-01-13T05:51:26.474Z,101830.20
2023-01-13T05:53:54.751Z,101827.91
2023-01-13T05:56:22.890Z,101833.39
2023-01-13T05:58:51.093Z,101841.81
2023-01-13T06:01:19.489Z,101839.59
2023-01-13T06:03:48.176Z,101838.91
2023-01-13T06:06:16.660Z,101837.73
2023-01-13T06:08:45.271Z,101844.55
2023-01-13T06:11:13.633Z,101844.33
2023-01-13T06:13:41.913Z,101846.40
2023-01-13T06:16:10.853Z,101848.50
2023-01-13T06:18:39.295Z,101850.77
2023-01-13T06:21:07.780Z,101847.88
2023-01-13T06:23:38.819Z,101847.30
2023-01-13T06:26:19.598Z,101842.47
2023-01-13T06:28:50.225Z,101841.52
2023-01-13T06:31:19.384Z,101841.08
2023-01-13T06:33:51.812Z,101842.91
2023-01-13T06:36:29.422Z,101841.84
2023-01-13T06:38:59.858Z,101837.98
2023-01-13T06:41:50.530Z,101845.23
2023-01-13T06:44:20.680Z,101849.25
2023-01-13T06:46:49.081Z,101855.15
2023-01-13T06:49:17.501Z,101854.95
2023-01-13T06:51:46.726Z,101853.89
2023-01-13T06:54:14.809Z,101857.39
2023-01-13T06:56:42.982Z,101856.63
2023-01-13T06:59:11.299Z,101857.79
2023-01-13T07:01:39.545Z,101859.84
2023-01-13T07:04:08.134Z,101857.79
2023-01-13T07:06:36.314Z,101860.64
2023-01-13T07:09:06.782Z,101862.93
2023-01-13T07:11:35.347Z,101856.79
2023-01-13T07:14:22.152Z,101852.98
2023-01-13T07:16:52.520Z,101855.59
2023-01-13T07:19:24.051Z,101853.67
2023-01-13T07:21:52.940Z,101853.34
2023-01-13T07:24:22.583Z,101853.48
2023-01-13T07:26:52.516Z,101852.31
2023-01-13T07:29:20.849Z,101852.11
2023-01-13T07:31:50.200Z,101858.52
2023-01-13T07:34:18.742Z,101851.68
2023-01-13T07:36:47.331Z,101850.35
2023-01-13T07:39:16.020Z,101850.26
2023-01-13T07:42:03.448Z,101849.29
2023-01-13T07:44:32.031Z,101847.19
2023-01-13T07:47:00.257Z,101848.33
2023-01-13T07:49:28.686Z,101846.87
2023-01-13T07:51:56.874Z,101848.31
2023-01-13T07:54:39.817Z,101853.34
2023-01-13T07:57:09.807Z,101852.85
2023-01-13T07:59:38.645Z,101852.70
2023-01-13T08:02:07.174Z,101856.08
2023-01-13T08:04:35.612Z,101854.89
2023-01-13T08:07:05.088Z,101849.69
2023-01-13T08:09:33.979Z,101843.83
2023-01-13T08:12:21.501Z,101850.51
2023-01-13T08:14:51.111Z,101851.77
2023-01-13T08:17:20.599Z,101853.54
2023-01-13T08:19:49.105Z,101858.23
2023-01-13T08:22:17.498Z,101857.32
2023-01-13T08:24:45.875Z,101857.48
2023-01-13T08:27:14.166Z,101854.34
2023-01-13T08:29:42.851Z,101854.67
2023-01-13T08:32:11.447Z,101850.81
2023-01-13T08:34:39.626Z,101851.48
2023-01-13T08:37:07.800Z,101845.84
2023-01-13T08:39:36.399Z,101844.98
2023-01-13T08:42:05.494Z,101839.92
2023-01-13T08:44:33.771Z,101833.58
2023-01-13T08:47:02.777Z,101825.27
2023-01-13T08:49:31.367Z,101823.64
2023-01-13T08:51:59.660Z,101822.27
2023-01-13T08:54:28.045Z,101815.99
2023-01-13T08:56:56.941Z,101812.59
2023-01-13T08:59:25.415Z,101816.70
2023-01-13T09:01:54.049Z,101819.73
2023-01-13T09:04:25.818Z,101822.14
2023-01-13T09:06:55.553Z,101822.20
2023-01-13T09:09:24.273Z,101822.65
2023-01-13T09:12:11.387Z,101821.01
2023-01-13T09:14:40.380Z,101818.75
2023-01-13T09:17:08.760Z,101816.45
2023-01-13T09:19:37.769Z,101814.75
2023-01-13T09:22:06.048Z,101811.23
2023-01-13T09:24:34.228Z,101805.30
2023-01-13T09:27:02.504Z,101795.73
2023-01-13T09:29:31.212Z,101799.55
2023-01-13T09:31:59.902Z,101790.02
2023-01-13T09:34:46.503Z,101791.30
2023-01-13T09:37:14.995Z,101786.72
2023-01-13T09:39:43.668Z,101788.11
2023-01-13T09:42:49.923Z,101784.60
2023-01-13T09:45:43.576Z,101779.05
2023-01-13T09:48:14.931Z,101787.19
2023-01-13T09:50:51.708Z,101791.78
2023-01-13T09:53:25.756Z,101789.80
2023-01-13T09:55:54.950Z,101785.80
2023-01-13T09:58:25.054Z,101789.61
2023-01-13T10:00:53.683Z,101784.46
2023-01-13T10:03:33.891Z,101777.08
2023-01-13T10:06:16.743Z,101776.05
2023-01-13T10:08:47.557Z,101774.37
2023-01-13T10:11:34.450Z,101770.95
2023-01-13T10:14:13.888Z,101767.73
2023-01-13T10:17:05.699Z,101767.70
2023-01-13T10:19:44.544Z,101763.17
2023-01-13T10:22:24.200Z,101757.96
2023-01-13T10:25:04.836Z,101758.15
2023-01-13T10:27:39.360Z,101759.09
2023-01-13T10:30:32.915Z,101755.85
2023-01-13T10:33:09.698Z,101754.73
2023-01-13T10:36:06.423Z,101751.84
2023-01-13T10:38:53.136Z,101747.71
2023-01-13T10:41:26.215Z,101738.63
2023-01-13T10:44:01.177Z,101737.56
2023-01-13T10:46:31.936Z,101738.27
2023-01-13T10:49:24.223Z,101737.09
2023-01-13T10:51:52.745Z,101741.02
2023-01-13T10:54:23.655Z,101741.55
2023-01-13T10:57:14.342Z,101740.86
2023-01-13T10:59:42.836Z,101736.65
2023-01-13T11:02:25.216Z,101735.33
2023-01-13T11:04:54.625Z,101740.45
2023-01-13T11:07:29.173Z,101740.11
2023-01-13T11:10:22.630Z,101749.71
2023-01-13T11:12:58.892Z,101752.85
2023-01-13T11:15:39.653Z,101750.45
2023-01-13T11:18:25.127Z,101746.33
2023-01-13T11:20:55.851Z,101747.70
2023-01-13T11:23:35.304Z,101746.56
2023-01-13T11:26:39.249Z,101738.02
2023-01-13T11:29:21.100Z,101737.38
2023-01-13T11:31:54.438Z,101736.15
2023-01-13T11:34:32.757Z,101733.42
2023-01-13T11:37:05.259Z,101731.18
2023-01-13T11:39:49.930Z,101734.59
2023-01-13T11:42:54.854Z,101734.52
2023-01-13T11:45:53.667Z,101728.08
2023-01-13T11:48:29.985Z,101729.66
2023-01-13T11:51:18.128Z,101728.80
2023-01-13T11:54:00.947Z,101727.59
2023-01-13T11:56:45.404Z,101730.10
2023-01-13T11:59:28.613Z,101732.25
2023-01-13T12:02:35.579Z,101726.67
2023-01-13T12:05:32.107Z,101732.23
2023-01-13T12:08:18.602Z,101728.97
2023-01-13T12:10:58.871Z,101725.25
2023-01-13T12:13:36.168Z,101725.92
2023-01-13T12:16:25.684Z,101725.52
2023-01-13T12:19:10.674Z,101723.70
2023-01-13T12:21:50.726Z,101722.61
2023-01-13T12:24:51.557Z,101719.47
2023-01-13T12:27:27.427Z,101724.30
2023-01-13T12:29:59.989Z,101722.54
2023-01-13T12:32:38.604Z,101724.30
2023-01-13T12:35:15.684Z,101721.70
2023-01-13T12:37:57.587Z,101723.45
2023-01-13T12:40:43.977Z,101722.96
2023-01-13T12:43:34.158Z,101728.52
2023-01-13T12:46:23.718Z,101724.58
2023-01-13T12:48:55.184Z,101722.80
2023-01-13T12:51:28.913Z,101725.14
2023-01-13T12:53:57.180Z,101730.13
2023-01-13T12:56:43.920Z,101726.15
2023-01-13T12:59:19.255Z,101726.98
2023-01-13T13:02:12.726Z,101727.36
2023-01-13T13:04:41.508Z,101727.05
2023-01-13T13:07:35.639Z,101725.61
2023-01-13T13:10:16.521Z,101724.05
2023-01-13T13:13:03.512Z,101730.46
2023-01-13T13:15:37.218Z,101730.27
2023-01-13T13:18:06.429Z,101730.22
2023-01-13T13:20:56.598Z,101734.93
2023-01-13T13:23:35.637Z,101737.93
2023-01-13T13:26:36.045Z,101735.54
2023-01-13T13:29:30.929Z,101736.45
2023-01-13T13:32:15.894Z,101741.99
2023-01-13T13:34:59.344Z,101738.06
2023-01-13T13:37:27.604Z,101737.65
2023-01-13T13:40:15.331Z,101737.38
2023-01-13T13:43:04.080Z,101739.23
2023-01-13T13:45:52.100Z,101742.05
2023-01-13T13:48:21.624Z,101740.16
2023-01-13T13:51:01.979Z,101743.05
2023-01-13T13:53:36.613Z,101741.70
2023-01-13T13:56:15.838Z,101743.23
2023-01-13T13:58:44.292Z,101743.21
2023-01-13T14:01:37.071Z,101744.70
2023-01-13T14:04:13.431Z,101743.27
2023-01-13T14:06:54.278Z,101738.55
2023-01-13T14:09:25.005Z,101739.61
2023-01-13T14:11:59.830Z,101738.05
2023-01-13T14:14:28.707Z,101748.48
2023-01-13T14:16:57.513Z,101756.42
2023-01-13T14:19:33.684Z,101757.48
2023-01-13T14:22:04.622Z,101757.01
2023-01-13T14:24:33.121Z,101763.55
2023-01-13T14:27:15.812Z,101761.23
2023-01-13T14:29:45.374Z,101760.70
2023-01-13T14:32:19.744Z,101767.04
2023-01-13T14:34:48.146Z,101768.81
2023-01-13T14:37:39.017Z,101764.27
2023-01-13T14:40:33.688Z,101765.73
2023-01-13T14:43:15.478Z,101769.98
2023-01-13T14:46:04.156Z,101773.92
2023-01-13T14:48:36.038Z,101778.04
2023-01-13T14:51:09.960Z,101776.11
2023-01-13T14:53:46.916Z,101776.21
2023-01-13T14:56:36.572Z,101769.91
2023-01-13T14:59:43.885Z,101773.41
2023-01-13T15:02:39.408Z,101778.02
2023-01-13T15:05:17.339Z,101776.77
2023-01-13T15:07:53.485Z,101772.83
2023-01-13T15:10:28.932Z,101770.17
2023-01-13T15:12:59.959Z,101774.59
2023-01-13T15:15:33.990Z,101777.28
2023-01-13T15:18:12.066Z,101776.09
2023-01-13T15:20:41.810Z,101781.36
2023-01-13T15:23:11.322Z,101786.66
2023-01-13T15:25:43.089Z,101785.58
2023-01-13T15:28:24.875Z,101787.95
2023-01-13T15:30:55.757Z,101784.95
2023-01-13T15:33:24.199Z,101787.45
2023-01-13T15:35:54.041Z,101784.62
2023-01-13T15:38:24.860Z,101785.80
2023-01-13T15:40:53.487Z,101785.86
2023-01-13T15:43:43.151Z,101787.30
2023-01-13T15:46:37.876Z,101793.15
2023-01-13T15:49:41.490Z,101792.64
2023-01-13T15:52:28.196Z,101790.44
2023-01-13T15:54:56.981Z,101786.48
2023-01-13T15:57:28.765Z,101788.13
2023-01-13T16:00:01.467Z,101787.36
2023-01-13T16:02:34.841Z,101788.86
2023-01-13T16:05:03.218Z,101790.02
2023-01-13T16:07:32.353Z,101794.80
2023-01-13T16:10:02.061Z,101797.46
2023-01-13T16:12:30.937Z,101797.10
2023-01-13T16:14:59.728Z,101797.17
2023-01-13T16:17:30.259Z,101794.19
2023-01-13T16:19:58.746Z,101795.88
2023-01-13T16:22:27.039Z,101794.23
2023-01-13T16:24:55.507Z,101792.15
2023-01-13T16:27:25.358Z,101792.48
2023-01-13T16:29:53.842Z,101792.88
2023-01-13T16:32:22.349Z,101791.66
2023-01-13T16:34:50.727Z,101792.23
2023-01-13T16:37:25.055Z,101786.35
2023-01-13T16:39:55.020Z,101787.77
2023-01-13T16:42:23.776Z,101788.70
2023-01-13T16:44:53.094Z,101785.27
2023-01-13T16:47:23.012Z,101781.56
2023-01-13T16:49:51.797Z,101783.61
2023-01-13T16:52:20.182Z,101783.55
2023-01-13T16:54:48.930Z,101787.16
2023-01-13T16:57:17.885Z,101785.64
2023-01-13T16:59:46.471Z,101785.64
2023-01-13T17:02:19.277Z,101787.49
2023-01-13T17:04:49.381Z,101781.74
2023-01-13T17:07:18.444Z,101781.64
2023-01-13T17:09:47.074Z,101777.96
2023-01-13T17:12:15.459Z,101775.81
2023-01-13T17:14:43.945Z,101775.69
2023-01-13T17:17:24.612Z,101779.27
2023-01-13T17:19:53.724Z,101782.05
2023-01-13T17:22:22.864Z,101780.48
2023-01-13T17:24:51.219Z,101780.35
2023-01-13T17:27:21.345Z,101777.39
2023-01-13T17:29:50.320Z,101780.64
2023-01-13T17:32:20.552Z,101782.60
2023-01-13T17:34:49.749Z,101784.86
2023-01-13T17:37:18.235Z,101789.54
2023-01-13T17:39:48.700Z,101794.88
2023-01-13T17:42:17.364Z,101794.73
2023-01-13T17:44:48.216Z,101788.08
2023-01-13T17:47:16.506Z,101791.14
2023-01-13T17:49:44.658Z,101792.78
2023-01-13T17:52:13.350Z,101793.05
2023-01-13T17:54:43.377Z,101790.39
2023-01-13T17:57:11.653Z,101784.84
2023-01-13T17:59:41.998Z,101785.26
2023-01-13T18:02:12.561Z,101785.90
2023-01-13T18:04:42.262Z,101786.92
2023-01-13T18:07:10.406Z,101787.64
2023-01-13T18:09:38.891Z,101782.16
2023-01-13T18:12:07.170Z,101783.68
2023-01-13T18:14:35.481Z,101782.17
2023-01-13T18:17:03.878Z,101782.26
2023-01-13T18:19:51.568Z,101777.67
2023-01-13T18:22:38.690Z,101775.61
2023-01-13T18:25:30.810Z,101775.40
2023-01-13T18:28:05.231Z,101780.20
2023-01-13T18:30:33.665Z,101780.42
2023-01-13T18:33:01.989Z,101781.90
2023-01-13T18:35:30.378Z,101779.58
2023-01-13T18:37:58.761Z,101778.09
2023-01-13T18:40:26.948Z,101780.00
2023-01-13T18:42:55.428Z,101775.60
2023-01-13T18:45:27.421Z,101773.21
2023-01-13T18:47:58.545Z,101775.08
2023-01-13T18:50:28.281Z,101771.31
2023-01-13T18:52:56.940Z,101772.45
2023-01-13T18:55:27.267Z,101768.45
2023-01-13T18:57:56.729Z,101771.10
2023-01-13T19:00:27.341Z,101774.08
2023-01-13T19:05:36.336Z,101780.52
2023-01-13T19:08:05.591Z,101780.60
2023-01-13T19:10:33.992Z,101777.13
2023-01-13T19:13:02.335Z,101775.61
2023-01-13T19:15:30.763Z,101772.05
2023-01-13T19:18:00.385Z,101767.43
2023-01-13T19:20:29.135Z,101767.17
2023-01-13T19:22:57.418Z,101765.85
2023-01-13T19:25:25.601Z,101769.83
2023-01-13T19:27:53.973Z,101764.98
2023-01-13T19:30:22.361Z,101762.53
2023-01-13T19:32:50.724Z,101759.62
2023-01-13T19:35:20.186Z,101761.00
2023-01-13T19:37:48.437Z,101751.98
2023-01-13T19:40:16.921Z,101756.00
2023-01-13T19:43:04.763Z,101761.16
2023-01-13T19:45:35.613Z,101765.32
2023-01-13T19:48:05.934Z,101766.23
2023-01-13T19:50:39.012Z,101768.83
2023-01-13T19:53:14.739Z,101762.64
2023-01-13T19:55:51.238Z,101761.09
2023-01-13T19:58:20.071Z,101764.52
2023-01-13T20:00:48.720Z,101764.64
2023-01-13T20:03:20.665Z,101767.38
2023-01-13T20:05:48.968Z,101766.08
2023-01-13T20:08:19.808Z,101770.86
2023-01-13T20:10:49.530Z,101774.80
2023-01-13T20:13:17.909Z,101770.67
2023-01-13T20:15:46.321Z,101767.94
2023-01-13T20:18:14.675Z,101767.23
2023-01-13T20:20:43.162Z,101765.75
2023-01-13T20:23:11.657Z,101762.02
2023-01-13T20:25:42.753Z,101756.94
2023-01-13T20:28:11.602Z,101757.65
2023-01-13T20:30:40.592Z,101761.49
2023-01-13T20:33:09.084Z,101764.59
2023-01-13T20:35:37.364Z,101763.42
2023-01-13T20:38:05.746Z,101762.84
2023-01-13T20:40:34.131Z,101761.35
2023-01-13T20:43:02.820Z,101755.31
2023-01-13T20:45:31.305Z,101756.55
2023-01-13T20:47:59.493Z,101753.58
2023-01-13T20:50:27.878Z,101753.98
2023-01-13T20:52:56.061Z,101752.27
2023-01-13T20:55:24.330Z,101747.60
2023-01-13T20:57:53.023Z,101754.71
2023-01-13T21:00:22.117Z,101754.92
2023-01-13T21:02:50.305Z,101751.94
2023-01-13T21:05:18.896Z,101749.84
2023-01-13T21:07:47.181Z,101745.80
2023-01-13T21:10:16.005Z,101743.64
2023-01-13T21:13:02.773Z,101739.42
2023-01-13T21:15:31.674Z,101745.91
2023-01-13T21:18:18.371Z,101739.60
2023-01-13T21:20:46.659Z,101737.27
2023-01-13T21:23:15.552Z,101738.11
2023-01-13T21:25:43.831Z,101736.57
2023-01-13T21:28:13.957Z,101739.69
2023-01-13T21:30:43.879Z,101741.52
2023-01-13T21:33:14.163Z,101741.52
2023-01-13T21:35:42.410Z,101742.25
2023-01-13T21:38:11.952Z,101743.65
2023-01-13T21:40:40.179Z,101746.73
2023-01-13T21:43:31.805Z,101744.98
2023-01-13T21:46:19.008Z,101741.44
2023-01-13T21:48:47.084Z,101735.23
2023-01-13T21:51:15.474Z,101741.92
2023-01-13T21:53:43.855Z,101738.08
2023-01-13T21:56:12.138Z,101738.65
2023-01-13T21:58:41.232Z,101730.52
2023-01-13T22:01:10.159Z,101726.95
2023-01-13T22:04:00.207Z,101725.48
2023-01-13T22:06:29.028Z,101725.88
2023-01-13T22:09:01.076Z,101721.20
2023-01-13T22:11:29.250Z,101721.75
2023-01-13T22:14:07.563Z,101721.86
2023-01-13T22:16:49.191Z,101727.11
2023-01-13T22:19:18.768Z,101725.10
2023-01-13T22:21:47.162Z,101725.51
2023-01-13T22:24:16.143Z,101722.28
2023-01-13T22:26:44.339Z,101720.36
2023-01-13T22:29:12.608Z,101719.64
2023-01-13T22:31:41.128Z,101719.10
2023-01-13T22:34:12.415Z,101723.42
2023-01-13T22:36:40.520Z,101721.50
2023-01-13T22:39:09.169Z,101719.73
2023-01-13T22:41:37.514Z,101718.86
2023-01-13T22:44:06.186Z,101716.80
2023-01-13T22:46:34.979Z,101713.78
2023-01-13T22:49:03.181Z,101709.43
2023-01-13T22:51:31.645Z,101702.98
2023-01-13T22:53:59.723Z,101704.83
2023-01-13T22:56:27.904Z,101704.58
2023-01-13T22:58:58.743Z,101704.71
2023-01-13T23:01:29.397Z,101702.27
2023-01-13T23:03:59.000Z,101702.80
2023-01-13T23:06:29.527Z,101705.10
2023-01-13T23:08:58.220Z,101702.70
2023-01-13T23:11:29.715Z,101702.80
2023-01-13T23:14:00.520Z,101698.29
2023-01-13T23:16:30.294Z,101697.64
2023-01-13T23:18:58.628Z,101699.88
2023-01-13T23:21:30.068Z,101699.58
2023-01-13T23:23:58.954Z,101700.31
2023-01-13T23:26:28.802Z,101698.56
2023-01-13T23:29:15.183Z,101696.30
2023-01-13T23:31:43.560Z,101699.16
2023-01-13T23:34:11.961Z,101698.73
2023-01-13T23:36:42.071Z,101698.56
2023-01-13T23:39:10.351Z,101697.90
2023-01-13T23:41:38.637Z,101698.88
2023-01-13T23:44:07.217Z,101705.46
2023-01-13T23:46:35.823Z,101704.46
2023-01-13T23:49:04.884Z,101705.13
2023-01-13T23:51:33.347Z,101702.25
2023-01-13T23:54:01.474Z,101701.23
2023-01-13T23:56:31.587Z,101701.39
2023-01-13T23:59:00.031Z,101699.53
